createdAt,value
2018-03-28T00:00:07.219Z,48.83
2018-03-28T00:02:33.410Z,47.50
2018-03-28T00:04:59.682Z,44.37
2018-03-28T00:07:26.166Z,46.40
2018-03-28T00:09:52.380Z,46.47
2018-03-28T00:12:18.641Z,47.40
2018-03-28T00:14:44.922Z,47.57
2018-03-28T00:17:11.140Z,44.07
2018-03-28T00:19:37.417Z,48.03
2018-03-28T00:22:03.725Z,47.97
2018-03-28T00:24:29.997Z,48.20
2018-03-28T00:26:56.415Z,46.10
2018-03-28T00:29:22.955Z,49.03
2018-03-28T00:31:50.430Z,51.40
2018-03-28T00:34:16.786Z,49.87
2018-03-28T00:36:43.753Z,50.97
2018-03-28T00:39:10.711Z,49.03
2018-03-28T00:41:37.214Z,51.83
2018-03-28T00:44:03.466Z,52.30
2018-03-28T00:46:30.601Z,51.70
2018-03-28T00:48:57.434Z,53.03
2018-03-28T00:51:36.489Z,50.17
2018-03-28T00:54:02.848Z,52.00
2018-03-28T00:56:29.860Z,50.17
2018-03-28T00:58:56.921Z,50.30
2018-03-28T01:01:23.162Z,50.47
2018-03-28T01:03:50.294Z,50.80
2018-03-28T01:06:20.522Z,51.37
2018-03-28T01:08:47.564Z,47.53
2018-03-28T01:11:13.869Z,48.60
2018-03-28T01:13:40.814Z,49.30
2018-03-28T01:16:07.328Z,49.13
2018-03-28T01:18:34.308Z,50.20
2018-03-28T01:21:00.551Z,51.83
2018-03-28T01:23:26.756Z,51.47
2018-03-28T01:25:53.003Z,49.23
2018-03-28T01:28:20.103Z,50.70
2018-03-28T01:30:46.331Z,47.63
2018-03-28T01:33:12.574Z,47.07
2018-03-28T01:35:39.157Z,48.10
2018-03-28T01:38:05.722Z,47.83
2018-03-28T01:40:31.950Z,45.20
2018-03-28T01:42:58.338Z,47.00
2018-03-28T01:45:24.573Z,46.30
2018-03-28T01:47:50.890Z,47.40
2018-03-28T01:50:18.017Z,45.07
2018-03-28T01:52:44.286Z,42.93
2018-03-28T01:55:11.411Z,44.17
2018-03-28T01:57:38.485Z,43.23
2018-03-28T02:00:04.729Z,45.33
2018-03-28T02:02:31.002Z,44.03
2018-03-28T02:04:57.716Z,44.17
2018-03-28T02:07:23.997Z,43.57
2018-03-28T02:09:50.221Z,43.27
2018-03-28T02:12:16.556Z,42.83
2018-03-28T02:14:43.608Z,41.40
2018-03-28T02:17:09.889Z,40.77
2018-03-28T02:19:36.148Z,42.27
2018-03-28T02:22:02.376Z,43.70
2018-03-28T02:24:28.746Z,41.03
2018-03-28T02:26:55.041Z,41.73
2018-03-28T02:29:21.261Z,41.83
2018-03-28T02:31:47.684Z,42.57
2018-03-28T02:34:13.896Z,43.70
2018-03-28T02:36:40.854Z,41.60
2018-03-28T02:39:07.106Z,45.10
2018-03-28T02:41:33.376Z,45.43
2018-03-28T02:43:59.609Z,44.90
2018-03-28T02:46:25.875Z,42.87
2018-03-28T02:48:52.141Z,44.97
2018-03-28T02:51:19.344Z,43.53
2018-03-28T02:53:45.611Z,44.53
2018-03-28T02:56:11.853Z,44.00
2018-03-28T02:58:38.103Z,41.80
2018-03-28T03:01:04.339Z,44.10
2018-03-28T03:03:31.330Z,43.53
2018-03-28T03:05:58.482Z,41.87
2018-03-28T03:08:24.791Z,45.37
2018-03-28T03:10:51.014Z,43.33
2018-03-28T03:13:17.456Z,44.80
2018-03-28T03:15:43.704Z,45.27
2018-03-28T03:18:09.928Z,45.00
2018-03-28T03:20:36.140Z,45.50
2018-03-28T03:23:02.368Z,46.20
2018-03-28T03:25:28.840Z,45.80
2018-03-28T03:27:55.239Z,45.70
2018-03-28T03:30:22.289Z,45.27
2018-03-28T03:32:48.715Z,45.07
2018-03-28T03:35:15.175Z,45.43
2018-03-28T03:37:41.378Z,44.70
2018-03-28T03:40:08.412Z,41.20
2018-03-28T03:42:34.817Z,41.20
2018-03-28T03:45:01.115Z,38.27
2018-03-28T03:47:28.141Z,39.47
2018-03-28T03:49:54.379Z,35.87
2018-03-28T03:52:20.617Z,34.93
2018-03-28T03:54:47.026Z,33.40
2018-03-28T03:57:13.270Z,31.97
2018-03-28T03:59:39.602Z,32.13
2018-03-28T04:02:05.977Z,30.97
2018-03-28T04:04:32.368Z,29.27
2018-03-28T04:06:58.769Z,28.53
2018-03-28T04:09:25.027Z,27.77
2018-03-28T04:11:51.237Z,25.10
2018-03-28T04:14:18.697Z,24.73
2018-03-28T04:16:44.933Z,24.67
2018-03-28T04:19:11.167Z,25.00
2018-03-28T04:21:37.482Z,23.80
2018-03-28T04:24:03.702Z,22.43
2018-03-28T04:26:29.923Z,24.40
2018-03-28T04:28:56.157Z,24.80
2018-03-28T04:31:22.362Z,24.50
2018-03-28T04:33:48.646Z,25.70
2018-03-28T04:36:15.658Z,24.50
2018-03-28T04:38:41.893Z,24.50
2018-03-28T04:41:09.334Z,25.20
2018-03-28T04:43:35.900Z,24.67
2018-03-28T04:46:02.141Z,25.73
2018-03-28T04:48:29.165Z,24.77
2018-03-28T04:50:55.381Z,25.23
2018-03-28T04:53:21.633Z,25.70
2018-03-28T04:55:48.650Z,25.03
2018-03-28T04:58:14.953Z,26.67
2018-03-28T05:00:41.266Z,26.43
2018-03-28T05:03:10.525Z,26.00
2018-03-28T05:05:40.105Z,25.80
2018-03-28T05:08:06.470Z,24.73
2018-03-28T05:10:32.701Z,27.00
2018-03-28T05:12:58.953Z,26.93
2018-03-28T05:15:25.159Z,26.77
2018-03-28T05:17:51.415Z,27.93
2018-03-28T05:20:17.662Z,27.57
2018-03-28T05:22:44.113Z,26.77
2018-03-28T05:25:11.056Z,26.33
2018-03-28T05:27:37.292Z,26.37
2018-03-28T05:30:03.581Z,27.43
2018-03-28T05:32:30.590Z,29.13
2018-03-28T05:34:56.787Z,28.43
2018-03-28T05:37:23.025Z,28.00
2018-03-28T05:39:49.289Z,28.23
2018-03-28T05:42:15.609Z,30.83
2018-03-28T05:44:41.810Z,28.87
2018-03-28T05:47:08.018Z,29.43
2018-03-28T05:49:34.958Z,29.33
2018-03-28T05:52:01.326Z,30.60
2018-03-28T05:54:27.747Z,31.13
2018-03-28T05:56:54.059Z,31.23
2018-03-28T05:59:20.313Z,31.47
2018-03-28T06:01:46.545Z,32.13
2018-03-28T06:04:12.792Z,31.63
2018-03-28T06:06:39.028Z,31.73
2018-03-28T06:09:05.248Z,32.73
2018-03-28T06:11:31.479Z,32.50
2018-03-28T06:13:57.743Z,33.37
2018-03-28T06:16:24.755Z,33.07
2018-03-28T06:18:51.015Z,33.20
2018-03-28T06:21:17.985Z,33.80
2018-03-28T06:23:44.201Z,33.73
2018-03-28T06:26:10.402Z,33.47
2018-03-28T06:28:36.597Z,33.90
2018-03-28T06:31:02.862Z,34.83
2018-03-28T06:33:29.318Z,33.57
2018-03-28T06:35:56.446Z,35.53
2018-03-28T06:38:22.669Z,34.67
2018-03-28T06:40:49.623Z,33.33
2018-03-28T06:43:16.624Z,35.70
2018-03-28T06:45:42.841Z,34.57
2018-03-28T06:48:09.071Z,36.17
2018-03-28T06:50:35.344Z,35.13
2018-03-28T06:53:02.341Z,35.50
2018-03-28T06:55:28.582Z,35.20
2018-03-28T06:57:55.566Z,35.23
2018-03-28T07:00:21.772Z,34.50
2018-03-28T07:02:48.174Z,35.00
2018-03-28T07:05:14.393Z,34.33
2018-03-28T07:07:40.626Z,35.37
2018-03-28T07:10:06.842Z,34.33
2018-03-28T07:12:33.131Z,33.03
2018-03-28T07:14:59.341Z,32.10
2018-03-28T07:17:25.587Z,34.47
2018-03-28T07:19:51.788Z,33.77
2018-03-28T07:22:18.006Z,35.30
2018-03-28T07:24:44.253Z,33.10
2018-03-28T07:27:10.503Z,35.53
2018-03-28T07:29:37.569Z,35.97
2018-03-28T07:32:03.832Z,33.80
2018-03-28T07:34:30.046Z,34.40
2018-03-28T07:36:56.287Z,36.20
2018-03-28T07:39:22.497Z,34.80
2018-03-28T07:41:48.729Z,34.53
2018-03-28T07:44:14.983Z,34.33
2018-03-28T07:46:41.268Z,36.03
2018-03-28T07:49:08.239Z,36.70
2018-03-28T07:51:34.538Z,36.87
2018-03-28T07:54:01.652Z,36.47
2018-03-28T07:56:27.956Z,35.53
2018-03-28T07:58:54.578Z,36.57
2018-03-28T08:01:20.782Z,39.07
2018-03-28T08:03:46.969Z,38.73
2018-03-28T08:06:15.620Z,37.97
2018-03-28T08:08:41.943Z,37.70
2018-03-28T08:11:09.409Z,39.37
2018-03-28T08:13:35.637Z,36.70
2018-03-28T08:16:01.871Z,37.60
2018-03-28T08:18:28.886Z,37.37
2018-03-28T08:20:55.132Z,36.70
2018-03-28T08:23:21.357Z,37.27
2018-03-28T08:25:47.613Z,38.77
2018-03-28T08:28:13.883Z,37.00
2018-03-28T08:30:40.103Z,36.83
2018-03-28T08:33:07.268Z,37.83
2018-03-28T08:35:33.486Z,38.27
2018-03-28T08:37:59.717Z,37.13
2018-03-28T08:40:26.718Z,37.30
2018-03-28T08:42:52.942Z,38.20
2018-03-28T08:45:19.225Z,38.50
2018-03-28T08:47:45.475Z,38.77
2018-03-28T08:50:11.687Z,37.87
2018-03-28T08:52:38.021Z,37.47
2018-03-28T08:55:04.282Z,36.67
2018-03-28T08:57:30.513Z,37.57
2018-03-28T08:59:56.818Z,37.37
2018-03-28T09:02:23.134Z,38.73
2018-03-28T09:04:49.478Z,38.37
2018-03-28T09:07:16.635Z,36.30
2018-03-28T09:09:42.880Z,36.37
2018-03-28T09:12:09.251Z,36.93
2018-03-28T09:14:36.412Z,37.13
2018-03-28T09:17:02.627Z,38.13
2018-03-28T09:19:29.128Z,38.33
2018-03-28T09:21:57.586Z,36.57
2018-03-28T09:24:23.926Z,37.00
2018-03-28T09:26:51.024Z,38.20
2018-03-28T09:29:17.523Z,38.00
2018-03-28T09:31:43.770Z,38.07
2018-03-28T09:34:10.757Z,39.40
2018-03-28T09:36:37.099Z,39.20
2018-03-28T09:39:03.394Z,39.83
2018-03-28T09:41:29.756Z,39.40
2018-03-28T09:43:56.547Z,37.87
2018-03-28T09:46:22.834Z,37.10
2018-03-28T09:48:49.357Z,37.57
2018-03-28T09:51:16.806Z,37.63
2018-03-28T09:53:43.098Z,37.20
2018-03-28T09:56:10.177Z,38.17
2018-03-28T09:58:36.644Z,37.17
2018-03-28T10:01:07.311Z,35.40
2018-03-28T10:03:33.614Z,34.50
2018-03-28T10:05:59.854Z,33.53
2018-03-28T10:08:26.685Z,31.03
2018-03-28T10:10:52.352Z,29.57
2018-03-28T10:13:18.614Z,30.80
2018-03-28T10:15:45.722Z,29.33
2018-03-28T10:18:12.699Z,30.47
2018-03-28T10:20:39.039Z,28.73
2018-03-28T10:23:05.390Z,30.73
2018-03-28T10:35:55.599Z,21.37
2018-03-28T10:38:21.900Z,22.97
2018-03-28T10:40:48.169Z,23.77
2018-03-28T10:43:14.408Z,24.20
2018-03-28T10:45:40.692Z,24.17
2018-03-28T10:48:07.009Z,26.03
2018-03-28T10:50:33.262Z,26.47
2018-03-28T10:52:59.492Z,25.63
2018-03-28T10:55:26.759Z,26.90
2018-03-28T10:57:52.970Z,27.17
2018-03-28T11:00:19.298Z,27.40
2018-03-28T11:02:45.843Z,28.03
2018-03-28T11:05:12.142Z,27.83
2018-03-28T11:07:38.424Z,27.53
2018-03-28T11:10:04.666Z,29.17
2018-03-28T11:12:30.902Z,28.07
2018-03-28T11:14:57.213Z,28.80
2018-03-28T11:17:23.426Z,27.93
2018-03-28T11:19:49.652Z,27.93
2018-03-28T11:22:16.118Z,29.83
2018-03-28T11:24:42.494Z,27.73
2018-03-28T11:27:09.122Z,28.57
2018-03-28T11:29:35.355Z,28.33
2018-03-28T11:32:01.578Z,29.80
2018-03-28T11:34:27.953Z,29.30
2018-03-28T11:36:54.199Z,29.10
2018-03-28T11:39:21.008Z,25.53
2018-03-28T11:41:48.018Z,26.03
2018-03-28T11:44:15.021Z,25.83
2018-03-28T11:46:41.513Z,23.60
2018-03-28T11:49:07.715Z,20.20
2018-03-28T11:51:34.677Z,20.67
2018-03-28T11:54:01.090Z,20.13
2018-03-28T11:56:27.314Z,20.83
2018-03-28T11:58:53.576Z,20.60
2018-03-28T12:01:19.938Z,20.23
2018-03-28T12:03:46.196Z,20.17
2018-03-28T12:06:13.765Z,20.57
2018-03-28T12:08:40.752Z,21.60
2018-03-28T12:11:07.777Z,21.47
2018-03-28T12:13:34.102Z,20.93
2018-03-28T12:16:00.366Z,21.37
2018-03-28T12:18:26.663Z,23.07
2018-03-28T12:20:52.969Z,23.50
2018-03-28T12:23:28.113Z,23.80
2018-03-28T12:25:55.774Z,23.47
2018-03-28T12:28:25.866Z,24.33
2018-03-28T12:30:52.098Z,24.23
2018-03-28T12:33:19.091Z,23.40
2018-03-28T12:35:45.282Z,24.20
2018-03-28T12:38:11.486Z,23.57
2018-03-28T12:40:37.710Z,22.77
2018-03-28T12:43:04.046Z,22.67
2018-03-28T12:45:30.335Z,23.90
2018-03-28T12:47:56.615Z,22.40
2018-03-28T12:50:22.925Z,24.30
2018-03-28T12:52:49.240Z,23.23
2018-03-28T12:55:15.554Z,23.83
2018-03-28T12:57:41.778Z,24.43
2018-03-28T13:00:07.985Z,23.10
2018-03-28T13:02:34.550Z,23.03
2018-03-28T13:05:01.540Z,21.83
2018-03-28T13:07:28.673Z,18.70
2018-03-28T13:09:55.189Z,16.17
2018-03-28T13:12:21.410Z,15.77
2018-03-28T13:14:47.656Z,14.77
2018-03-28T13:17:14.047Z,10.43
2018-03-28T13:19:40.352Z,8.67
2018-03-28T13:22:06.633Z,8.70
2018-03-28T13:24:32.892Z,7.40
2018-03-28T13:26:59.304Z,7.13
2018-03-28T13:29:25.567Z,7.20
2018-03-28T13:31:51.774Z,7.13
2018-03-28T13:34:18.753Z,6.20
2018-03-28T13:36:45.833Z,5.93
2018-03-28T13:39:12.037Z,6.67
2018-03-28T13:41:38.337Z,6.07
2018-03-28T13:44:05.075Z,6.47
2018-03-28T13:46:31.330Z,6.70
2018-03-28T13:48:57.571Z,6.27
2018-03-28T13:51:23.790Z,6.70
2018-03-28T13:53:50.026Z,6.83
2018-03-28T13:56:16.314Z,7.83
2018-03-28T13:58:42.573Z,8.23
2018-03-28T14:01:08.868Z,9.03
2018-03-28T14:03:43.795Z,8.27
2018-03-28T14:06:10.030Z,8.60
2018-03-28T14:08:37.495Z,9.77
2018-03-28T14:11:03.828Z,10.37
2018-03-28T14:13:30.069Z,9.70
2018-03-28T14:15:56.343Z,9.63
2018-03-28T14:18:22.608Z,8.40
2018-03-28T14:20:49.078Z,8.80
2018-03-28T14:23:16.242Z,8.77
2018-03-28T14:25:42.514Z,8.97
2018-03-28T14:28:08.711Z,9.17
2018-03-28T14:30:35.826Z,8.70
2018-03-28T14:33:04.318Z,8.93
2018-03-28T14:35:36.451Z,9.17
2018-03-28T14:38:02.710Z,9.53
2018-03-28T14:40:28.930Z,9.63
2018-03-28T14:42:55.215Z,9.93
2018-03-28T14:45:21.454Z,10.77
2018-03-28T14:47:47.772Z,10.80
2018-03-28T14:50:14.041Z,11.87
2018-03-28T14:52:40.332Z,11.90
2018-03-28T14:55:06.562Z,12.73
2018-03-28T14:57:32.795Z,13.03
2018-03-28T14:59:59.012Z,12.20
2018-03-28T15:02:25.370Z,12.53
2018-03-28T15:04:51.901Z,13.10
2018-03-28T15:07:19.030Z,14.37
2018-03-28T15:09:46.042Z,17.57
2018-03-28T15:12:12.286Z,12.77
2018-03-28T15:14:39.252Z,13.83
2018-03-28T15:17:08.928Z,13.83
2018-03-28T15:19:35.204Z,14.63
2018-03-28T15:22:01.422Z,16.53
2018-03-28T15:24:27.776Z,13.50
2018-03-28T15:26:54.024Z,18.33
2018-03-28T15:29:20.303Z,20.50
2018-03-28T15:31:47.301Z,12.13
2018-03-28T15:34:13.542Z,12.57
2018-03-28T15:36:39.745Z,13.30
2018-03-28T15:39:06.024Z,12.43
2018-03-28T15:41:32.266Z,12.63
2018-03-28T15:43:58.557Z,16.43
2018-03-28T15:46:24.848Z,13.87
2018-03-28T15:48:51.817Z,13.43
2018-03-28T15:51:18.107Z,13.47
2018-03-28T15:53:44.298Z,14.13
2018-03-28T15:56:10.561Z,14.00
2018-03-28T15:58:36.803Z,13.87
2018-03-28T16:01:03.887Z,14.47
2018-03-28T16:03:30.253Z,14.40
2018-03-28T16:05:57.432Z,13.97
2018-03-28T16:08:24.460Z,14.07
2018-03-28T16:10:50.747Z,13.83
2018-03-28T16:13:17.004Z,13.30
2018-03-28T16:15:43.227Z,13.23
2018-03-28T16:18:09.470Z,13.53
2018-03-28T16:20:35.686Z,14.00
2018-03-28T16:23:02.759Z,13.83
2018-03-28T16:25:29.749Z,13.67
2018-03-28T16:27:55.975Z,14.47
2018-03-28T16:30:22.230Z,14.23
2018-03-28T16:32:48.470Z,14.37
2018-03-28T16:35:14.706Z,13.63
2018-03-28T16:37:40.937Z,14.17
2018-03-28T16:40:07.158Z,13.90
2018-03-28T16:42:33.415Z,14.23
2018-03-28T16:44:59.676Z,13.70
2018-03-28T16:47:26.063Z,12.97
2018-03-28T16:49:53.035Z,13.07
2018-03-28T16:52:19.270Z,14.20
2018-03-28T16:54:45.482Z,13.73
2018-03-28T16:57:12.081Z,14.77
2018-03-28T16:59:40.085Z,13.70
2018-03-28T17:02:08.254Z,14.53
2018-03-28T17:04:35.181Z,13.50
2018-03-28T17:07:02.192Z,13.87
2018-03-28T17:09:28.460Z,13.43
2018-03-28T17:11:54.718Z,13.97
2018-03-28T17:14:21.007Z,13.13
2018-03-28T17:16:47.280Z,13.20
2018-03-28T17:19:14.486Z,12.93
2018-03-28T17:21:40.806Z,13.60
2018-03-28T17:24:11.513Z,12.83
2018-03-28T17:26:37.781Z,12.33
2018-03-28T17:29:04.022Z,13.50
2018-03-28T17:31:30.986Z,15.67
2018-03-28T17:33:57.246Z,12.43
2018-03-28T17:36:23.513Z,11.93
2018-03-28T17:38:50.469Z,11.57
2018-03-28T17:41:17.535Z,12.40
2018-03-28T17:43:43.810Z,11.80
2018-03-28T17:46:10.141Z,11.57
2018-03-28T17:48:36.587Z,11.07
2018-03-28T17:51:02.833Z,10.43
2018-03-28T17:53:29.885Z,11.17
2018-03-28T17:55:56.913Z,10.23
2018-03-28T17:58:23.189Z,9.47
2018-03-28T18:00:49.438Z,9.83
2018-03-28T18:03:15.677Z,8.33
2018-03-28T18:05:42.106Z,7.37
2018-03-28T18:08:08.335Z,9.67
2018-03-28T18:10:34.586Z,4.73
2018-03-28T18:13:01.762Z,3.63
2018-03-28T18:15:28.030Z,5.00
2018-03-28T18:17:54.364Z,4.47
2018-03-28T18:20:20.773Z,3.73
2018-03-28T18:22:47.071Z,2.50
2018-03-28T18:25:13.425Z,2.90
2018-03-28T18:27:39.654Z,1.80
2018-03-28T18:30:05.899Z,3.13
2018-03-28T18:32:32.191Z,6.87
2018-03-28T18:34:58.437Z,5.13
2018-03-28T18:37:24.647Z,6.27
2018-03-28T18:39:50.999Z,7.73
2018-03-28T18:42:17.243Z,10.27
2018-03-28T18:44:44.310Z,8.13
2018-03-28T18:47:10.999Z,6.50
2018-03-28T18:49:37.371Z,5.10
2018-03-28T18:52:03.650Z,4.60
2018-03-28T18:54:30.202Z,4.40
2018-03-28T18:56:57.120Z,4.60
2018-03-28T18:59:23.513Z,5.27
2018-03-28T19:01:49.743Z,5.10
2018-03-28T19:04:15.970Z,5.97
2018-03-28T19:06:42.226Z,6.03
2018-03-28T19:09:08.499Z,6.30
2018-03-28T19:11:35.246Z,6.57
2018-03-28T19:14:01.575Z,6.97
2018-03-28T19:16:28.079Z,6.80
2018-03-28T19:18:54.353Z,8.00
2018-03-28T19:21:20.567Z,7.03
2018-03-28T19:23:47.042Z,7.10
2018-03-28T19:26:13.357Z,7.83
2018-03-28T19:28:39.638Z,9.17
2018-03-28T19:31:05.945Z,10.10
2018-03-28T19:33:32.943Z,10.50
2018-03-28T19:35:59.238Z,10.93
2018-03-28T19:38:25.506Z,13.30
2018-03-28T19:40:51.849Z,13.20
2018-03-28T19:43:18.066Z,13.77
2018-03-28T19:45:44.325Z,15.43
2018-03-28T19:48:10.675Z,16.43
2018-03-28T19:50:36.934Z,17.73
2018-03-28T19:53:03.368Z,17.87
2018-03-28T19:55:29.681Z,16.77
2018-03-28T19:57:55.911Z,17.20
2018-03-28T20:00:22.108Z,16.23
2018-03-28T20:02:49.151Z,15.47
2018-03-28T20:05:16.106Z,16.03
2018-03-28T20:07:42.417Z,15.60
2018-03-28T20:10:09.082Z,13.63
2018-03-28T20:12:35.354Z,11.70
2018-03-28T20:15:01.586Z,13.20
2018-03-28T20:17:27.837Z,13.00
2018-03-28T20:19:55.039Z,13.00
2018-03-28T20:22:21.354Z,13.00
2018-03-28T20:24:47.590Z,12.57
2018-03-28T20:27:13.878Z,10.63
2018-03-28T20:29:40.753Z,12.23
2018-03-28T20:32:07.331Z,11.33
2018-03-28T20:34:33.546Z,11.80
2018-03-28T20:36:59.775Z,12.23
2018-03-28T20:39:26.020Z,12.03
2018-03-28T20:41:52.651Z,12.00
2018-03-28T20:44:19.020Z,12.83
2018-03-28T20:46:45.291Z,14.30
2018-03-28T20:49:11.618Z,15.00
2018-03-28T20:51:38.812Z,14.50
2018-03-28T20:54:05.056Z,15.13
2018-03-28T20:56:32.046Z,15.83
2018-03-28T20:58:58.370Z,15.50
2018-03-28T21:01:24.633Z,13.47
2018-03-28T21:03:50.893Z,12.60
2018-03-28T21:06:17.477Z,12.87
2018-03-28T21:08:43.706Z,10.87
2018-03-28T21:11:09.964Z,10.33
2018-03-28T21:13:36.154Z,9.33
2018-03-28T21:16:03.211Z,9.40
2018-03-28T21:18:30.133Z,8.80
2018-03-28T21:20:56.402Z,8.20
2018-03-28T21:23:22.732Z,7.77
2018-03-28T21:25:49.413Z,8.27
2018-03-28T21:28:15.678Z,7.40
2018-03-28T21:30:41.902Z,7.33
2018-03-28T21:33:08.125Z,7.03
2018-03-28T21:35:35.262Z,7.03
2018-03-28T21:38:01.582Z,6.43
2018-03-28T21:40:27.787Z,6.50
2018-03-28T21:42:54.961Z,6.20
2018-03-28T21:45:21.981Z,6.07
2018-03-28T21:47:49.028Z,6.67
2018-03-28T21:50:15.294Z,6.03
2018-03-28T21:52:41.589Z,6.43
2018-03-28T21:55:08.594Z,5.77
2018-03-28T21:57:35.557Z,6.10
2018-03-28T22:00:02.022Z,6.50
2018-03-28T22:02:28.247Z,6.33
2018-03-28T22:04:55.344Z,6.23
2018-03-28T22:07:21.595Z,6.70
2018-03-28T22:09:47.804Z,5.90
2018-03-28T22:12:15.216Z,5.83
2018-03-28T22:14:42.178Z,4.90
2018-03-28T22:17:08.441Z,4.97
2018-03-28T22:19:35.682Z,4.43
2018-03-28T22:22:02.708Z,4.60
2018-03-28T22:24:29.021Z,3.90
2018-03-28T22:26:56.574Z,4.40
2018-03-28T22:29:22.857Z,4.33
2018-03-28T22:31:56.966Z,4.90
2018-03-28T22:34:32.166Z,5.93
2018-03-28T22:36:58.439Z,6.40
2018-03-28T22:39:27.247Z,7.07
2018-03-28T22:41:54.208Z,7.60
2018-03-28T22:44:20.437Z,8.03
2018-03-28T22:46:47.073Z,8.50
2018-03-28T22:49:13.485Z,9.80
2018-03-28T22:51:40.455Z,10.30
2018-03-28T22:54:06.742Z,10.73
2018-03-28T22:56:33.987Z,12.03
2018-03-28T22:59:00.206Z,13.50
2018-03-28T23:01:27.225Z,13.70
2018-03-28T23:03:54.271Z,14.03
2018-03-28T23:06:20.469Z,13.27
2018-03-28T23:08:46.716Z,13.00
2018-03-28T23:11:13.273Z,12.07
2018-03-28T23:13:39.583Z,12.27
2018-03-28T23:16:06.441Z,11.30
2018-03-28T23:18:32.783Z,11.13
2018-03-28T23:20:59.014Z,11.00
2018-03-28T23:23:26.398Z,10.90
2018-03-28T23:25:52.617Z,11.40
2018-03-28T23:28:19.593Z,11.27
2018-03-28T23:30:45.887Z,11.07
2018-03-28T23:33:13.085Z,12.00
2018-03-28T23:35:39.366Z,12.20
2018-03-28T23:38:05.774Z,12.80
2018-03-28T23:40:32.178Z,12.67
2018-03-28T23:42:58.402Z,13.33
2018-03-28T23:45:24.677Z,13.57
2018-03-28T23:47:50.906Z,13.73
2018-03-28T23:50:17.135Z,14.27
2018-03-28T23:52:44.184Z,14.77
2018-03-28T23:55:10.474Z,16.07
2018-03-28T23:57:36.704Z,16.33
